Wetterdaten: Woche 24.05.10 - 30.05.10 (KW21)
Datum Zeit Temp. Innen Temp. Aussen UV X Diff Temp. Feuchte Inne Feuchte Auss Sonnenschein Luftdruck Regen ab 0,1 Wind Sonnenschein Windben
24.05.2010 00:00 21,0 C 16,4 C 0,0 UV-I 0,0 C 57 % 80 % 0 % 1020,3 hPa 0,0 l/m 0,0 km/h (0 Bft) 0,00 h 0,0 km/h (0 Bft)
24.05.2010 01:00 20,8 C 15,3 C 0,0 UV-I 0,0 C 57 % 83 % 0 % 1019,8 hPa 0,0 l/m 0,0 km/h (0 Bft) 0,00 h 0,0 km/h (0 Bft)
24.05.2010 02:00 20,7 C 14,5 C 0,0 UV-I 0,0 C 57 % 86 % 0 % 1019,1 hPa 0,0 l/m 0,0 km/h (0 Bft) 0,00 h 0,0 km/h (0 Bft)
24.05.2010 03:00 20,6 C 13,7 C 0,0 UV-I 0,0 C 58 % 89 % 0 % 1018,6 hPa 0,0 l/m 0,0 km/h (0 Bft) 0,00 h 0,0 km/h (0 Bft)
24.05.2010 04:00 20,4 C 12,9 C 0,0 UV-I 0,0 C 58 % 90 % 0 % 1017,9 hPa 0,0 l/m 0,0 km/h (0 Bft) 0,00 h 0,0 km/h (0 Bft)
24.05.2010 05:00 20,3 C 12,5 C 0,0 UV-I 0,0 C 58 % 91 % 0 % 1017,5 hPa 0,0 l/m 0,0 km/h (0 Bft) 0,00 h 0,0 km/h (0 Bft)
24.05.2010 06:00 20,1 C 12,8 C 0,2 UV-I 0,0 C 59 % 92 % 0 % 1016,9 hPa 0,0 l/m 0,0 km/h (0 Bft) 0,00 h 0,5 km/h (0 Bft)
24.05.2010 07:00 20,2 C 15,1 C 1,3 UV-I 0,0 C 59 % 87 % 0 % 1016,5 hPa 0,0 l/m 0,5 km/h (0 Bft) 0,00 h 2,1 km/h (1 Bft)
24.05.2010 08:00 20,4 C 17,9 C 3,3 UV-I 3,7 C 59 % 78 % 72 % 1016,1 hPa 0,0 l/m 3,1 km/h (1 Bft) 0,52 h 5,1 km/h (1 Bft)
24.05.2010 09:00 20,7 C 21,0 C 10,0 UV-I 5,8 C 58 % 66 % 100 % 1015,7 hPa 0,0 l/m 6,5 km/h (2 Bft) 1,00 h 7,8 km/h (2 Bft)
24.05.2010 10:00 20,9 C 22,7 C 13,7 UV-I 5,5 C 58 % 60 % 100 % 1015,5 hPa 0,0 l/m 9,1 km/h (2 Bft) 1,00 h 10,5 km/h (2 Bft)
24.05.2010 11:00 21,1 C 24,2 C 12,2 UV-I 5,6 C 58 % 53 % 100 % 1015,1 hPa 0,0 l/m 7,7 km/h (2 Bft) 1,00 h 9,2 km/h (2 Bft)
24.05.2010 12:00 21,4 C 25,5 C 9,2 UV-I 4,7 C 57 % 48 % 100 % 1014,5 hPa 0,0 l/m 9,8 km/h (2 Bft) 0,93 h 10,4 km/h (2 Bft)
24.05.2010 13:00 21,9 C 26,4 C 8,4 UV-I 4,0 C 56 % 45 % 97 % 1014,1 hPa 0,0 l/m 9,5 km/h (2 Bft) 0,80 h 10,9 km/h (2 Bft)
24.05.2010 14:00 22,6 C 26,2 C 6,5 UV-I 2,4 C 54 % 45 % 68 % 1014,3 hPa 0,0 l/m 10,0 km/h (2 Bft) 0,23 h 13,2 km/h (3 Bft)
24.05.2010 15:00 23,6 C 26,4 C 7,6 UV-I 2,7 C 52 % 44 % 78 % 1015,1 hPa 0,0 l/m 11,7 km/h (2 Bft) 0,37 h 15,7 km/h (3 Bft)
24.05.2010 16:00 24,7 C 26,3 C 7,8 UV-I 2,7 C 49 % 44 % 76 % 1015,4 hPa 0,0 l/m 11,7 km/h (2 Bft) 0,30 h 13,2 km/h (3 Bft)
24.05.2010 17:00 24,9 C 25,9 C 5,9 UV-I 2,9 C 49 % 45 % 81 % 1015,0 hPa 0,0 l/m 12,0 km/h (2 Bft) 0,50 h 14,1 km/h (3 Bft)
24.05.2010 18:00 24,2 C 24,3 C 2,6 UV-I 0,9 C 49 % 46 % 25 % 1013,9 hPa 0,0 l/m 12,7 km/h (3 Bft) 0,00 h 13,9 km/h (3 Bft)
24.05.2010 19:00 23,5 C 23,4 C 1,3 UV-I 0,0 C 51 % 48 % 0 % 1013,1 hPa 0,0 l/m 12,9 km/h (3 Bft) 0,00 h 14,9 km/h (3 Bft)
24.05.2010 20:00 23,1 C 22,0 C 0,4 UV-I 0,0 C 52 % 52 % 0 % 1012,9 hPa 0,0 l/m 11,9 km/h (2 Bft) 0,00 h 12,1 km/h (2 Bft)
24.05.2010 21:00 22,8 C 20,4 C 0,0 UV-I 0,0 C 53 % 57 % 0 % 1012,8 hPa 0,0 l/m 5,5 km/h (1 Bft) 0,00 h 5,6 km/h (1 Bft)
24.05.2010 22:00 22,3 C 18,7 C 0,0 UV-I 0,0 C 54 % 63 % 0 % 1013,2 hPa 0,0 l/m 1,5 km/h (1 Bft) 0,00 h 2,1 km/h (1 Bft)
24.05.2010 23:00 22,0 C 17,2 C 0,0 UV-I 0,0 C 54 % 68 % 0 % 1013,2 hPa 0,0 l/m 0,1 km/h (0 Bft) 0,00 h 0,0 km/h (0 Bft)
25.05.2010 00:00 21,8 C 16,4 C 0,0 UV-I 0,0 C 55 % 73 % 0 % 1013,4 hPa 0,0 l/m 5,6 km/h (1 Bft) 0,00 h 7,6 km/h (2 Bft)
25.05.2010 01:00 21,7 C 15,4 C 0,0 UV-I 0,0 C 55 % 78 % 0 % 1013,8 hPa 0,0 l/m 3,9 km/h (1 Bft) 0,00 h 5,0 km/h (1 Bft)
25.05.2010 02:00 21,5 C 14,8 C 0,0 UV-I 0,0 C 56 % 80 % 0 % 1013,9 hPa 0,0 l/m 2,6 km/h (1 Bft) 0,00 h 3,8 km/h (1 Bft)
25.05.2010 03:00 21,4 C 14,8 C 0,0 UV-I 0,0 C 56 % 82 % 0 % 1014,1 hPa 0,0 l/m 5,7 km/h (1 Bft) 0,00 h 5,8 km/h (2 Bft)
25.05.2010 04:00 21,2 C 14,5 C 0,0 UV-I 0,0 C 57 % 82 % 0 % 1013,9 hPa 0,0 l/m 2,3 km/h (1 Bft) 0,00 h 2,8 km/h (1 Bft)
25.05.2010 05:00 21,2 C 14,2 C 0,0 UV-I 0,0 C 57 % 83 % 0 % 1013,7 hPa 0,0 l/m 2,3 km/h (1 Bft) 0,00 h 2,2 km/h (1 Bft)
25.05.2010 06:00 21,1 C 14,0 C 0,0 UV-I 0,0 C 57 % 85 % 0 % 1013,8 hPa 0,0 l/m 2,8 km/h (1 Bft) 0,00 h 3,2 km/h (1 Bft)
25.05.2010 07:00 21,0 C 14,0 C 0,6 UV-I 0,2 C 58 % 81 % 4 % 1014,5 hPa 0,0 l/m 7,1 km/h (2 Bft) 0,00 h 7,8 km/h (2 Bft)
25.05.2010 08:00 21,0 C 14,0 C 1,8 UV-I 1,2 C 58 % 80 % 33 % 1014,8 hPa 0,0 l/m 10,2 km/h (2 Bft) 0,00 h 10,1 km/h (2 Bft)
25.05.2010 09:00 21,1 C 14,9 C 7,2 UV-I 4,5 C 57 % 74 % 97 % 1015,1 hPa 0,0 l/m 11,5 km/h (2 Bft) 0,93 h 11,6 km/h (2 Bft)
25.05.2010 10:00 21,3 C 15,6 C 7,4 UV-I 3,8 C 57 % 69 % 95 % 1015,2 hPa 0,0 l/m 9,1 km/h (2 Bft) 0,90 h 9,8 km/h (2 Bft)
25.05.2010 11:00 21,5 C 17,0 C 9,2 UV-I 5,2 C 56 % 60 % 100 % 1015,4 hPa 0,0 l/m 8,0 km/h (2 Bft) 0,93 h 8,8 km/h (2 Bft)
25.05.2010 12:00 21,8 C 18,0 C 8,5 UV-I 5,3 C 55 % 54 % 100 % 1015,4 hPa 0,0 l/m 9,4 km/h (2 Bft) 0,97 h 11,2 km/h (2 Bft)
25.05.2010 13:00 22,2 C 18,9 C 8,1 UV-I 4,6 C 53 % 49 % 100 % 1015,3 hPa 0,0 l/m 7,8 km/h (2 Bft) 0,93 h 8,6 km/h (2 Bft)
25.05.2010 14:00 22,9 C 20,0 C 9,4 UV-I 5,9 C 49 % 46 % 100 % 1015,5 hPa 0,0 l/m 8,5 km/h (2 Bft) 0,92 h 10,3 km/h (2 Bft)
25.05.2010 15:00 23,9 C 20,7 C 8,9 UV-I 4,8 C 47 % 44 % 100 % 1016,0 hPa 0,0 l/m 9,1 km/h (2 Bft) 1,00 h 9,4 km/h (2 Bft)
25.05.2010 16:00 24,9 C 21,1 C 8,8 UV-I 4,7 C 44 % 43 % 100 % 1016,3 hPa 0,0 l/m 9,3 km/h (2 Bft) 0,93 h 8,9 km/h (2 Bft)
25.05.2010 17:00 24,5 C 20,2 C 3,7 UV-I 2,2 C 44 % 45 % 62 % 1014,8 hPa 0,0 l/m 10,8 km/h (2 Bft) 0,10 h 11,1 km/h (2 Bft)
25.05.2010 18:00 23,7 C 19,8 C 2,1 UV-I 1,2 C 46 % 46 % 35 % 1013,7 hPa 0,0 l/m 12,5 km/h (3 Bft) 0,00 h 14,4 km/h (3 Bft)
25.05.2010 19:00 23,1 C 19,0 C 0,9 UV-I 0,3 C 46 % 47 % 7 % 1012,8 hPa 0,0 l/m 13,5 km/h (3 Bft) 0,00 h 14,5 km/h (3 Bft)
25.05.2010 20:00 22,6 C 18,0 C 0,1 UV-I 0,0 C 47 % 50 % 0 % 1012,6 hPa 0,0 l/m 11,9 km/h (2 Bft) 0,00 h 11,1 km/h (2 Bft)
25.05.2010 21:00 22,1 C 17,1 C 0,0 UV-I 0,0 C 48 % 52 % 0 % 1012,6 hPa 0,0 l/m 11,0 km/h (2 Bft) 0,00 h 11,0 km/h (2 Bft)
25.05.2010 22:00 21,7 C 16,1 C 0,0 UV-I 0,0 C 48 % 54 % 0 % 1012,7 hPa 0,0 l/m 10,6 km/h (2 Bft) 0,00 h 11,6 km/h (2 Bft)
25.05.2010 23:00 21,4 C 15,0 C 0,0 UV-I 0,0 C 49 % 56 % 0 % 1012,6 hPa 0,0 l/m 11,1 km/h (2 Bft) 0,00 h 11,0 km/h (2 Bft)
26.05.2010 00:00 21,2 C 14,6 C 0,0 UV-I 0,0 C 50 % 57 % 0 % 1012,8 hPa 0,0 l/m 9,0 km/h (2 Bft) 0,00 h 8,9 km/h (2 Bft)
26.05.2010 01:00 21,0 C 13,6 C 0,0 UV-I 0,0 C 50 % 58 % 0 % 1012,9 hPa 0,0 l/m 9,8 km/h (2 Bft) 0,00 h 10,0 km/h (2 Bft)
26.05.2010 02:00 20,7 C 12,8 C 0,0 UV-I 0,0 C 50 % 60 % 0 % 1012,8 hPa 0,0 l/m 7,1 km/h (2 Bft) 0,00 h 8,1 km/h (2 Bft)
26.05.2010 03:00 20,5 C 12,0 C 0,0 UV-I 0,0 C 50 % 63 % 0 % 1012,3 hPa 0,0 l/m 8,5 km/h (2 Bft) 0,00 h 8,8 km/h (2 Bft)
26.05.2010 04:00 20,3 C 10,9 C 0,0 UV-I 0,0 C 50 % 65 % 0 % 1011,9 hPa 0,0 l/m 1,8 km/h (1 Bft) 0,00 h 1,8 km/h (1 Bft)
26.05.2010 05:00 20,1 C 10,1 C 0,0 UV-I 0,0 C 50 % 67 % 0 % 1011,5 hPa 0,0 l/m 1,1 km/h (1 Bft) 0,00 h 1,3 km/h (1 Bft)
26.05.2010 06:00 20,0 C 9,7 C 0,1 UV-I 0,0 C 49 % 69 % 0 % 1011,2 hPa 0,0 l/m 2,1 km/h (1 Bft) 0,00 h 2,6 km/h (1 Bft)
26.05.2010 07:00 19,9 C 10,4 C 1,1 UV-I 0,3 C 48 % 68 % 10 % 1010,9 hPa 0,0 l/m 4,4 km/h (1 Bft) 0,00 h 4,8 km/h (1 Bft)
26.05.2010 08:00 20,0 C 11,5 C 2,3 UV-I 2,1 C 49 % 66 % 60 % 1010,6 hPa 0,0 l/m 4,4 km/h (1 Bft) 0,20 h 4,6 km/h (1 Bft)
26.05.2010 09:00 20,1 C 12,0 C 0,8 UV-I 1,0 C 48 % 65 % 29 % 1011,0 hPa 0,0 l/m 1,6 km/h (1 Bft) 0,00 h 2,5 km/h (1 Bft)
26.05.2010 10:00 20,1 C 12,0 C 0,3 UV-I 0,1 C 49 % 68 % 4 % 1010,7 hPa 0,4 l/m 1,4 km/h (1 Bft) 0,00 h 1,6 km/h (1 Bft)
26.05.2010 11:00 19,9 C 11,0 C 0,6 UV-I 0,0 C 51 % 81 % 0 % 1010,7 hPa 2,6 l/m 0,1 km/h (0 Bft) 0,00 h 0,5 km/h (0 Bft)
26.05.2010 12:00 19,9 C 10,8 C 2,5 UV-I 0,2 C 52 % 87 % 6 % 1009,7 hPa 0,5 l/m 2,8 km/h (1 Bft) 0,00 h 4,9 km/h (1 Bft)
26.05.2010 13:00 20,2 C 12,2 C 4,4 UV-I 2,1 C 52 % 84 % 59 % 1008,9 hPa 0,0 l/m 6,8 km/h (2 Bft) 0,13 h 7,7 km/h (2 Bft)
26.05.2010 14:00 20,2 C 12,2 C 1,3 UV-I 0,3 C 52 % 84 % 9 % 1008,5 hPa 0,4 l/m 4,5 km/h (1 Bft) 0,00 h 5,3 km/h (1 Bft)
26.05.2010 15:00 20,0 C 11,0 C 0,6 UV-I 0,0 C 53 % 89 % 0 % 1008,6 hPa 5,0 l/m 8,0 km/h (2 Bft) 0,00 h 9,2 km/h (2 Bft)
26.05.2010 16:00 19,9 C 11,1 C 1,5 UV-I 0,3 C 54 % 91 % 9 % 1007,8 hPa 0,4 l/m 6,2 km/h (2 Bft) 0,00 h 7,0 km/h (2 Bft)
26.05.2010 17:00 19,7 C 11,1 C 0,2 UV-I 0,0 C 54 % 90 % 0 % 1007,6 hPa 1,2 l/m 8,7 km/h (2 Bft) 0,00 h 10,7 km/h (2 Bft)
26.05.2010 18:00 19,5 C 10,5 C 0,0 UV-I 0,0 C 55 % 90 % 0 % 1007,6 hPa 0,4 l/m 11,7 km/h (2 Bft) 0,00 h 11,8 km/h (2 Bft)
26.05.2010 19:00 19,2 C 9,8 C 0,0 UV-I 0,0 C 55 % 92 % 0 % 1007,7 hPa 0,4 l/m 12,3 km/h (3 Bft) 0,00 h 13,1 km/h (3 Bft)
26.05.2010 20:00 19,1 C 9,7 C 0,0 UV-I 0,0 C 56 % 93 % 0 % 1007,7 hPa 0,1 l/m 8,2 km/h (2 Bft) 0,00 h 8,1 km/h (2 Bft)
26.05.2010 21:00 19,0 C 9,6 C 0,0 UV-I 0,0 C 56 % 93 % 0 % 1008,0 hPa 0,0 l/m 3,5 km/h (1 Bft) 0,00 h 3,3 km/h (1 Bft)
26.05.2010 22:00 18,9 C 9,6 C 0,0 UV-I 0,0 C 56 % 93 % 0 % 1008,5 hPa 0,0 l/m 3,0 km/h (1 Bft) 0,00 h 3,7 km/h (1 Bft)
26.05.2010 23:00 18,8 C 9,4 C 0,0 UV-I 0,0 C 56 % 92 % 0 % 1008,8 hPa 0,0 l/m 1,0 km/h (0 Bft) 0,00 h 1,6 km/h (1 Bft)
27.05.2010 00:00 18,7 C 9,2 C 0,0 UV-I 0,0 C 56 % 93 % 0 % 1009,1 hPa 0,0 l/m 1,2 km/h (1 Bft) 0,00 h 1,7 km/h (1 Bft)
27.05.2010 01:00 18,6 C 9,1 C 0,0 UV-I 0,0 C 56 % 93 % 0 % 1009,0 hPa 0,0 l/m 0,5 km/h (0 Bft) 0,00 h 0,9 km/h (0 Bft)
27.05.2010 02:00 18,6 C 9,1 C 0,0 UV-I 0,0 C 56 % 93 % 0 % 1008,9 hPa 0,0 l/m 0,3 km/h (0 Bft) 0,00 h 0,2 km/h (0 Bft)
27.05.2010 03:00 18,6 C 9,0 C 0,0 UV-I 0,0 C 56 % 93 % 0 % 1008,9 hPa 0,0 l/m 0,1 km/h (0 Bft) 0,00 h 0,1 km/h (0 Bft)
27.05.2010 04:00 18,5 C 8,8 C 0,0 UV-I 0,0 C 56 % 93 % 0 % 1008,7 hPa 0,0 l/m 0,0 km/h (0 Bft) 0,00 h 0,0 km/h (0 Bft)
27.05.2010 05:00 18,4 C 8,5 C 0,0 UV-I 0,0 C 56 % 93 % 0 % 1008,6 hPa 0,0 l/m 0,0 km/h (0 Bft) 0,00 h 0,0 km/h (0 Bft)
27.05.2010 06:00 18,4 C 8,6 C 0,0 UV-I 0,0 C 56 % 94 % 0 % 1009,1 hPa 0,0 l/m 0,0 km/h (0 Bft) 0,00 h 0,4 km/h (0 Bft)
27.05.2010 07:00 18,4 C 8,8 C 0,2 UV-I 0,0 C 56 % 93 % 1 % 1009,6 hPa 0,3 l/m 2,6 km/h (1 Bft) 0,00 h 2,7 km/h (1 Bft)
27.05.2010 08:00 18,5 C 9,5 C 2,1 UV-I 1,4 C 56 % 92 % 41 % 1009,6 hPa 0,0 l/m 1,1 km/h (1 Bft) 0,00 h 1,2 km/h (1 Bft)
27.05.2010 09:00 18,6 C 11,0 C 6,6 UV-I 5,3 C 56 % 88 % 94 % 1010,2 hPa 0,0 l/m 0,7 km/h (0 Bft) 0,87 h 0,8 km/h (0 Bft)
27.05.2010 10:00 18,8 C 12,6 C 7,1 UV-I 5,3 C 55 % 80 % 100 % 1010,8 hPa 0,0 l/m 1,6 km/h (1 Bft) 1,00 h 2,2 km/h (1 Bft)
27.05.2010 11:00 19,1 C 13,4 C 4,6 UV-I 4,2 C 54 % 74 % 100 % 1011,1 hPa 0,0 l/m 1,5 km/h (1 Bft) 0,93 h 1,5 km/h (1 Bft)
27.05.2010 12:00 19,3 C 14,2 C 6,6 UV-I 4,8 C 53 % 70 % 100 % 1011,4 hPa 0,0 l/m 1,6 km/h (1 Bft) 0,97 h 2,3 km/h (1 Bft)
27.05.2010 13:00 19,8 C 15,7 C 7,9 UV-I 5,2 C 52 % 65 % 100 % 1011,1 hPa 0,0 l/m 2,4 km/h (1 Bft) 1,00 h 3,0 km/h (1 Bft)
27.05.2010 14:00 21,0 C 17,1 C 8,7 UV-I 5,7 C 50 % 60 % 100 % 1012,0 hPa 0,0 l/m 3,9 km/h (1 Bft) 0,97 h 4,8 km/h (1 Bft)
27.05.2010 15:00 22,5 C 17,8 C 7,8 UV-I 5,3 C 47 % 56 % 100 % 1013,0 hPa 0,0 l/m 3,2 km/h (1 Bft) 0,97 h 3,3 km/h (1 Bft)
27.05.2010 16:00 22,7 C 17,7 C 6,3 UV-I 4,3 C 46 % 55 % 98 % 1012,4 hPa 0,0 l/m 2,6 km/h (1 Bft) 0,97 h 3,6 km/h (1 Bft)
27.05.2010 17:00 22,6 C 17,9 C 5,2 UV-I 3,3 C 46 % 53 % 82 % 1012,2 hPa 0,0 l/m 2,5 km/h (1 Bft) 0,57 h 2,7 km/h (1 Bft)
27.05.2010 18:00 22,1 C 17,3 C 1,6 UV-I 0,9 C 46 % 54 % 26 % 1011,5 hPa 0,0 l/m 1,5 km/h (1 Bft) 0,00 h 2,3 km/h (1 Bft)
27.05.2010 19:00 21,4 C 16,7 C 0,3 UV-I 0,1 C 47 % 57 % 4 % 1010,9 hPa 0,0 l/m 2,1 km/h (1 Bft) 0,00 h 2,9 km/h (1 Bft)
27.05.2010 20:00 20,9 C 16,1 C 0,0 UV-I 0,0 C 49 % 62 % 0 % 1010,8 hPa 0,0 l/m 2,0 km/h (1 Bft) 0,00 h 2,0 km/h (1 Bft)
27.05.2010 21:00 20,5 C 15,5 C 0,0 UV-I 0,0 C 50 % 67 % 0 % 1010,8 hPa 0,0 l/m 0,4 km/h (0 Bft) 0,00 h 0,7 km/h (0 Bft)
27.05.2010 22:00 20,4 C 14,9 C 0,0 UV-I 0,0 C 51 % 73 % 0 % 1011,2 hPa 0,0 l/m 0,0 km/h (0 Bft) 0,00 h 0,0 km/h (0 Bft)
27.05.2010 23:00 20,2 C 14,0 C 0,0 UV-I 0,0 C 52 % 76 % 0 % 1011,3 hPa 0,0 l/m 0,2 km/h (0 Bft) 0,00 h 0,3 km/h (0 Bft)
28.05.2010 00:00 20,0 C 13,7 C 0,0 UV-I 0,0 C 53 % 77 % 0 % 1011,1 hPa 0,0 l/m 2,4 km/h (1 Bft) 0,00 h 3,3 km/h (1 Bft)
28.05.2010 01:00 19,8 C 13,3 C 0,0 UV-I 0,0 C 53 % 79 % 0 % 1011,0 hPa 0,0 l/m 1,1 km/h (1 Bft) 0,00 h 1,9 km/h (1 Bft)
28.05.2010 02:00 19,6 C 13,0 C 0,0 UV-I 0,0 C 54 % 80 % 0 % 1010,9 hPa 0,0 l/m 1,0 km/h (0 Bft) 0,00 h 1,4 km/h (1 Bft)
28.05.2010 03:00 19,6 C 12,6 C 0,0 UV-I 0,0 C 54 % 82 % 0 % 1010,9 hPa 0,0 l/m 0,8 km/h (0 Bft) 0,00 h 1,9 km/h (1 Bft)
28.05.2010 04:00 19,5 C 12,1 C 0,0 UV-I 0,0 C 55 % 84 % 0 % 1010,8 hPa 0,0 l/m 0,1 km/h (0 Bft) 0,00 h 0,2 km/h (0 Bft)
28.05.2010 05:00 19,4 C 11,9 C 0,0 UV-I 0,0 C 55 % 85 % 0 % 1011,2 hPa 0,0 l/m 0,2 km/h (0 Bft) 0,00 h 0,0 km/h (0 Bft)
28.05.2010 06:00 19,4 C 11,7 C 0,0 UV-I 0,0 C 55 % 87 % 0 % 1011,8 hPa 0,0 l/m 0,0 km/h (0 Bft) 0,00 h 0,0 km/h (0 Bft)
28.05.2010 07:00 19,4 C 12,0 C 0,8 UV-I 0,1 C 56 % 87 % 3 % 1012,2 hPa 0,0 l/m 0,4 km/h (0 Bft) 0,00 h 0,6 km/h (0 Bft)
28.05.2010 08:00 19,5 C 12,4 C 2,6 UV-I 1,9 C 56 % 85 % 50 % 1012,8 hPa 0,0 l/m 2,4 km/h (1 Bft) 0,30 h 3,0 km/h (1 Bft)
28.05.2010 09:00 19,6 C 14,1 C 7,9 UV-I 5,6 C 55 % 75 % 100 % 1013,4 hPa 0,0 l/m 5,2 km/h (1 Bft) 0,90 h 7,6 km/h (2 Bft)
28.05.2010 10:00 19,6 C 15,7 C 12,6 UV-I 6,8 C 54 % 66 % 100 % 1013,8 hPa 0,0 l/m 5,3 km/h (1 Bft) 0,93 h 5,6 km/h (1 Bft)
28.05.2010 11:00 19,6 C 16,8 C 11,8 UV-I 6,3 C 53 % 59 % 100 % 1014,0 hPa 0,0 l/m 7,1 km/h (2 Bft) 0,90 h 8,5 km/h (2 Bft)
28.05.2010 12:00 20,2 C 17,6 C 8,2 UV-I 4,6 C 51 % 53 % 99 % 1014,6 hPa 0,0 l/m 7,4 km/h (2 Bft) 0,93 h 8,1 km/h (2 Bft)
28.05.2010 13:00 20,8 C 18,4 C 8,3 UV-I 4,2 C 50 % 50 % 97 % 1015,3 hPa 0,0 l/m 6,5 km/h (2 Bft) 0,90 h 7,7 km/h (2 Bft)
28.05.2010 14:00 21,6 C 19,4 C 7,8 UV-I 4,2 C 48 % 47 % 99 % 1015,9 hPa 0,0 l/m 7,9 km/h (2 Bft) 0,93 h 9,5 km/h (2 Bft)
28.05.2010 15:00 22,8 C 19,7 C 8,0 UV-I 3,9 C 45 % 45 % 96 % 1017,5 hPa 0,0 l/m 8,5 km/h (2 Bft) 0,93 h 9,6 km/h (2 Bft)
28.05.2010 16:00 23,9 C 20,1 C 9,8 UV-I 4,2 C 41 % 41 % 100 % 1018,6 hPa 0,0 l/m 9,5 km/h (2 Bft) 0,93 h 11,3 km/h (2 Bft)
28.05.2010 17:00 24,2 C 19,7 C 6,9 UV-I 3,5 C 40 % 41 % 95 % 1019,2 hPa 0,0 l/m 9,3 km/h (2 Bft) 0,83 h 10,4 km/h (2 Bft)
28.05.2010 18:00 23,5 C 18,6 C 3,2 UV-I 1,9 C 41 % 45 % 54 % 1018,4 hPa 0,0 l/m 8,9 km/h (2 Bft) 0,37 h 9,6 km/h (2 Bft)
28.05.2010 19:00 22,5 C 17,7 C 1,9 UV-I 0,0 C 42 % 47 % 1 % 1018,1 hPa 0,0 l/m 6,7 km/h (2 Bft) 0,00 h 7,5 km/h (2 Bft)
28.05.2010 20:00 21,8 C 16,5 C 0,5 UV-I 0,0 C 43 % 49 % 0 % 1018,4 hPa 0,0 l/m 5,1 km/h (1 Bft) 0,00 h 5,0 km/h (1 Bft)
28.05.2010 21:00 21,3 C 15,1 C 0,0 UV-I 0,0 C 45 % 53 % 0 % 1018,6 hPa 0,0 l/m 0,8 km/h (0 Bft) 0,00 h 0,5 km/h (0 Bft)
28.05.2010 22:00 20,9 C 13,0 C 0,0 UV-I 0,0 C 46 % 59 % 0 % 1019,4 hPa 0,0 l/m 0,1 km/h (0 Bft) 0,00 h 0,2 km/h (0 Bft)
28.05.2010 23:00 20,5 C 11,1 C 0,0 UV-I 0,0 C 47 % 68 % 0 % 1019,9 hPa 0,0 l/m 0,0 km/h (0 Bft) 0,00 h 0,0 km/h (0 Bft)
29.05.2010 00:00 20,1 C 9,8 C 0,0 UV-I 0,0 C 48 % 75 % 0 % 1020,1 hPa 0,0 l/m 0,0 km/h (0 Bft) 0,00 h 0,0 km/h (0 Bft)
29.05.2010 01:00 19,7 C 8,7 C 0,0 UV-I 0,0 C 48 % 80 % 0 % 1020,4 hPa 0,0 l/m 0,0 km/h (0 Bft) 0,00 h 0,0 km/h (0 Bft)
29.05.2010 02:00 19,5 C 8,7 C 0,0 UV-I 0,0 C 50 % 86 % 0 % 1020,2 hPa 0,0 l/m 0,0 km/h (0 Bft) 0,00 h 0,0 km/h (0 Bft)
29.05.2010 03:00 19,4 C 8,5 C 0,0 UV-I 0,0 C 50 % 86 % 0 % 1020,0 hPa 0,0 l/m 0,0 km/h (0 Bft) 0,00 h 0,0 km/h (0 Bft)
29.05.2010 04:00 19,2 C 8,0 C 0,0 UV-I 0,0 C 50 % 88 % 0 % 1019,8 hPa 0,0 l/m 0,0 km/h (0 Bft) 0,00 h 0,0 km/h (0 Bft)
29.05.2010 05:00 19,2 C 8,0 C 0,0 UV-I 0,0 C 50 % 88 % 0 % 1019,8 hPa 0,0 l/m 0,1 km/h (0 Bft) 0,00 h 0,4 km/h (0 Bft)
29.05.2010 06:00 19,2 C 8,5 C 0,2 UV-I 0,0 C 50 % 87 % 0 % 1019,9 hPa 0,0 l/m 0,0 km/h (0 Bft) 0,00 h 0,0 km/h (0 Bft)
29.05.2010 07:00 19,2 C 9,6 C 1,2 UV-I 0,2 C 51 % 86 % 7 % 1019,8 hPa 0,0 l/m 1,6 km/h (1 Bft) 0,00 h 2,7 km/h (1 Bft)
29.05.2010 08:00 19,2 C 11,7 C 3,5 UV-I 4,2 C 51 % 82 % 76 % 1019,9 hPa 0,0 l/m 3,3 km/h (1 Bft) 0,53 h 5,1 km/h (1 Bft)
29.05.2010 09:00 19,2 C 15,6 C 11,7 UV-I 6,6 C 51 % 67 % 100 % 1019,9 hPa 0,0 l/m 4,1 km/h (1 Bft) 0,63 h 5,9 km/h (2 Bft)
29.05.2010 10:00 19,4 C 17,4 C 13,8 UV-I 6,2 C 50 % 56 % 100 % 1019,7 hPa 0,0 l/m 4,9 km/h (1 Bft) 1,00 h 6,2 km/h (2 Bft)
29.05.2010 11:00 19,6 C 19,0 C 11,9 UV-I 5,6 C 49 % 47 % 100 % 1019,4 hPa 0,0 l/m 6,1 km/h (2 Bft) 1,00 h 7,0 km/h (2 Bft)
29.05.2010 12:00 20,1 C 20,1 C 8,6 UV-I 5,5 C 47 % 41 % 100 % 1019,0 hPa 0,0 l/m 5,3 km/h (1 Bft) 0,83 h 5,9 km/h (2 Bft)
29.05.2010 13:00 20,8 C 21,3 C 8,0 UV-I 5,0 C 45 % 37 % 100 % 1018,7 hPa 0,0 l/m 6,3 km/h (2 Bft) 0,93 h 8,1 km/h (2 Bft)
29.05.2010 14:00 22,0 C 22,1 C 7,9 UV-I 4,4 C 42 % 34 % 100 % 1018,6 hPa 0,0 l/m 6,1 km/h (2 Bft) 0,87 h 7,4 km/h (2 Bft)
29.05.2010 15:00 23,3 C 22,3 C 8,3 UV-I 3,4 C 40 % 34 % 95 % 1019,2 hPa 0,0 l/m 6,8 km/h (2 Bft) 0,60 h 7,5 km/h (2 Bft)
29.05.2010 16:00 24,0 C 22,6 C 7,5 UV-I 2,8 C 38 % 35 % 78 % 1018,7 hPa 0,0 l/m 5,9 km/h (2 Bft) 0,23 h 6,8 km/h (2 Bft)
29.05.2010 17:00 23,8 C 22,4 C 5,6 UV-I 2,5 C 39 % 35 % 70 % 1016,6 hPa 0,0 l/m 5,1 km/h (1 Bft) 0,03 h 5,2 km/h (1 Bft)
29.05.2010 18:00 23,3 C 21,5 C 2,5 UV-I 1,2 C 39 % 38 % 36 % 1015,4 hPa 0,0 l/m 5,4 km/h (1 Bft) 0,00 h 6,3 km/h (2 Bft)
29.05.2010 19:00 22,7 C 20,3 C 0,3 UV-I 0,0 C 40 % 42 % 1 % 1014,4 hPa 0,0 l/m 4,9 km/h (1 Bft) 0,00 h 4,9 km/h (1 Bft)
29.05.2010 20:00 22,1 C 19,1 C 0,0 UV-I 0,0 C 41 % 49 % 0 % 1013,9 hPa 0,0 l/m 6,0 km/h (2 Bft) 0,00 h 6,4 km/h (2 Bft)
29.05.2010 21:00 21,6 C 17,3 C 0,0 UV-I 0,0 C 43 % 57 % 0 % 1013,5 hPa 0,0 l/m 4,3 km/h (1 Bft) 0,00 h 4,9 km/h (1 Bft)
29.05.2010 22:00 21,3 C 17,1 C 0,0 UV-I 0,0 C 45 % 60 % 0 % 1013,1 hPa 0,0 l/m 4,4 km/h (1 Bft) 0,00 h 5,8 km/h (2 Bft)
29.05.2010 23:00 21,2 C 15,4 C 0,0 UV-I 0,0 C 47 % 74 % 0 % 1012,6 hPa 0,1 l/m 4,2 km/h (1 Bft) 0,00 h 4,7 km/h (1 Bft)
30.05.2010 00:00 21,0 C 15,0 C 0,0 UV-I 0,0 C 50 % 77 % 0 % 1011,7 hPa 0,0 l/m 4,1 km/h (1 Bft) 0,00 h 5,0 km/h (1 Bft)
30.05.2010 01:00 20,9 C 14,5 C 0,0 UV-I 0,0 C 51 % 82 % 0 % 1010,9 hPa 0,3 l/m 4,4 km/h (1 Bft) 0,00 h 5,6 km/h (1 Bft)
30.05.2010 02:00 20,7 C 13,9 C 0,0 UV-I 0,0 C 53 % 87 % 0 % 1009,8 hPa 0,2 l/m 3,0 km/h (1 Bft) 0,00 h 3,8 km/h (1 Bft)
30.05.2010 03:00 20,5 C 13,7 C 0,0 UV-I 0,0 C 54 % 89 % 0 % 1009,1 hPa 1,1 l/m 3,9 km/h (1 Bft) 0,00 h 4,9 km/h (1 Bft)
30.05.2010 04:00 20,3 C 13,5 C 0,0 UV-I 0,0 C 55 % 91 % 0 % 1008,3 hPa 0,0 l/m 3,7 km/h (1 Bft) 0,00 h 4,8 km/h (1 Bft)
30.05.2010 05:00 20,1 C 13,5 C 0,0 UV-I 0,0 C 56 % 92 % 0 % 1007,7 hPa 0,0 l/m 2,6 km/h (1 Bft) 0,00 h 3,7 km/h (1 Bft)
30.05.2010 06:00 20,1 C 13,5 C 0,0 UV-I 0,0 C 57 % 91 % 0 % 1007,5 hPa 0,0 l/m 2,5 km/h (1 Bft) 0,00 h 2,8 km/h (1 Bft)
30.05.2010 07:00 20,0 C 13,6 C 0,0 UV-I 0,0 C 57 % 90 % 0 % 1007,6 hPa 0,0 l/m 4,0 km/h (1 Bft) 0,00 h 6,1 km/h (2 Bft)
30.05.2010 08:00 20,0 C 13,6 C 0,2 UV-I 0,0 C 58 % 91 % 1 % 1007,8 hPa 0,3 l/m 3,4 km/h (1 Bft) 0,00 h 4,9 km/h (1 Bft)
30.05.2010 09:00 20,1 C 14,1 C 1,7 UV-I 0,5 C 58 % 90 % 13 % 1008,1 hPa 0,1 l/m 4,9 km/h (1 Bft) 0,00 h 5,0 km/h (1 Bft)
30.05.2010 10:00 20,4 C 14,9 C 3,7 UV-I 1,8 C 57 % 86 % 50 % 1008,1 hPa 0,0 l/m 5,5 km/h (1 Bft) 0,23 h 6,8 km/h (2 Bft)
30.05.2010 11:00 20,7 C 14,9 C 2,1 UV-I 0,4 C 56 % 86 % 13 % 1008,1 hPa 0,4 l/m 5,3 km/h (1 Bft) 0,00 h 6,0 km/h (2 Bft)
30.05.2010 12:00 20,7 C 14,7 C 4,7 UV-I 1,2 C 57 % 89 % 32 % 1008,5 hPa 0,2 l/m 6,1 km/h (2 Bft) 0,17 h 8,1 km/h (2 Bft)
30.05.2010 13:00 21,1 C 15,8 C 4,4 UV-I 2,0 C 57 % 85 % 50 % 1008,3 hPa 0,4 l/m 7,5 km/h (2 Bft) 0,37 h 8,6 km/h (2 Bft)
30.05.2010 14:00 21,2 C 15,6 C 4,9 UV-I 2,0 C 57 % 85 % 56 % 1008,1 hPa 0,0 l/m 9,7 km/h (2 Bft) 0,23 h 11,4 km/h (2 Bft)
30.05.2010 15:00 21,3 C 15,5 C 2,3 UV-I 0,9 C 56 % 83 % 25 % 1007,9 hPa 0,2 l/m 11,9 km/h (2 Bft) 0,00 h 14,0 km/h (3 Bft)
30.05.2010 16:00 20,9 C 13,6 C 0,8 UV-I 0,0 C 56 % 87 % 1 % 1008,5 hPa 0,3 l/m 8,8 km/h (2 Bft) 0,00 h 10,1 km/h (2 Bft)
30.05.2010 17:00 20,6 C 13,4 C 2,2 UV-I 0,5 C 56 % 86 % 14 % 1008,8 hPa 0,3 l/m 7,5 km/h (2 Bft) 0,00 h 9,3 km/h (2 Bft)
30.05.2010 18:00 20,9 C 13,7 C 2,2 UV-I 0,8 C 55 % 83 % 24 % 1009,1 hPa 0,0 l/m 7,8 km/h (2 Bft) 0,00 h 10,0 km/h (2 Bft)
30.05.2010 19:00 20,4 C 10,8 C 0,2 UV-I 0,0 C 55 % 85 % 1 % 1009,8 hPa 4,2 l/m 11,4 km/h (2 Bft) 0,00 h 13,4 km/h (3 Bft)
30.05.2010 20:00 19,9 C 10,1 C 0,3 UV-I 0,0 C 55 % 88 % 0 % 1009,4 hPa 0,0 l/m 1,9 km/h (1 Bft) 0,00 h 2,6 km/h (1 Bft)
30.05.2010 21:00 19,6 C 9,8 C 0,0 UV-I 0,0 C 55 % 87 % 0 % 1009,7 hPa 0,0 l/m 1,4 km/h (1 Bft) 0,00 h 1,9 km/h (1 Bft)
30.05.2010 22:00 19,3 C 9,4 C 0,0 UV-I 0,0 C 54 % 87 % 0 % 1009,7 hPa 0,0 l/m 1,4 km/h (1 Bft) 0,00 h 2,2 km/h (1 Bft)
30.05.2010 23:00 19,1 C 9,2 C 0,0 UV-I 0,0 C 54 % 88 % 0 % 1009,8 hPa 0,0 l/m 1,7 km/h (1 Bft) 0,00 h 2,8 km/h (1 Bft)
Min-Datum _ 27.05.10 29.05.10 24.05.10 24.05.10 29.05.10 29.05.10 24.05.10 26.05.10 - 24.05.10 - 24.05.10
_ Min-Zeit 04:50 04:24 00:00 00:00 16:04 14:12 00:00 16:32 - 00:00 - 00:00
Minimum _ 18,4 C 7,9 C 0,0 UV-I 0,0 C 38 % 33 % 0 % 1007,4 hPa - 0,0 km/h (0 Bft) - 0,0 km/h (0 Bft)
Max-Datum _ 25.05.10 24.05.10 29.05.10 27.05.10 24.05.10 27.05.10 24.05.10 29.05.10 26.05.10 30.05.10 24.05.10 30.05.10
_ Max-Zeit 16:46 13:34 10:22 09:42 05:40 06:00 08:20 01:32 15:06 19:20 08:18 19:04
Maximum _ 25,2 C 26,9 C 16,0 UV-I 8,0 C 59 % 94 % 100 % 1020,6 hPa 5,0 l/m 20,1 km/h
W-SW (4 Bft)
0,03 h 36,7 km/h
W-SW (5 Bft)
Durchschnitt _ 20,8 C 15,0 C 2,7 UV-I 1,4 C 52 % 71 % 31 % 1013,2 hPa #19,6 l/m 4,8 km/h (1 Bft) #39:22 h 5,5 km/h (1 Bft)
© 2012 W. Hausmann